createdAt,value
2023-04-12T00:04:28.863Z,6.81
2023-04-12T00:09:34.073Z,6.81
2023-04-12T00:14:37.416Z,6.79
2023-04-12T00:19:43.863Z,6.74
2023-04-12T00:24:47.484Z,6.71
2023-04-12T00:29:50.844Z,6.67
2023-04-12T00:34:55.657Z,6.63
2023-04-12T00:39:59.822Z,6.58
2023-04-12T00:45:03.016Z,6.55
2023-04-12T00:50:09.868Z,6.53
2023-04-12T00:55:13.328Z,6.49
2023-04-12T01:00:17.864Z,6.46
2023-04-12T01:05:24.555Z,6.42
2023-04-12T01:10:36.810Z,6.37
2023-04-12T01:15:49.236Z,6.32
2023-04-12T01:21:07.113Z,6.29
2023-04-12T01:26:34.899Z,6.27
2023-04-12T01:31:42.815Z,6.25
2023-04-12T01:36:50.437Z,6.27
2023-04-12T01:41:57.218Z,6.27
2023-04-12T01:47:02.863Z,6.32
2023-04-12T01:52:31.266Z,6.37
2023-04-12T01:57:40.502Z,6.37
2023-04-12T02:02:46.949Z,6.39
2023-04-12T02:07:55.542Z,6.41
2023-04-12T02:13:01.444Z,6.41
2023-04-12T02:18:06.991Z,6.44
2023-04-12T02:23:10.518Z,6.46
2023-04-12T02:28:13.884Z,6.52
2023-04-12T02:33:18.638Z,6.53
2023-04-12T02:38:23.129Z,6.58
2023-04-12T02:43:26.437Z,6.61
2023-04-12T02:48:31.224Z,6.67
2023-04-12T02:53:35.752Z,6.69
2023-04-12T02:58:40.099Z,6.74
2023-04-12T03:03:44.950Z,6.68
2023-04-12T03:08:48.269Z,6.55
2023-04-12T03:13:52.466Z,6.51
2023-04-12T03:18:57.749Z,6.43
2023-04-12T03:24:01.676Z,6.36
2023-04-12T03:29:10.071Z,6.31
2023-04-12T03:34:16.517Z,6.24
2023-04-12T03:39:19.871Z,6.20
2023-04-12T03:44:26.205Z,6.19
2023-04-12T03:49:31.637Z,6.17
2023-04-12T03:54:35.032Z,6.14
2023-04-12T03:59:38.297Z,6.14
2023-04-12T04:04:43.338Z,6.12
2023-04-12T04:09:46.772Z,6.12
2023-04-12T04:14:49.988Z,6.20
2023-04-12T04:19:54.646Z,6.26
2023-04-12T04:24:58.524Z,6.30
2023-04-12T04:30:02.980Z,6.37
2023-04-12T04:35:09.180Z,6.48
2023-04-12T04:40:13.126Z,6.58
2023-04-12T04:45:16.428Z,6.63
2023-04-12T04:50:22.972Z,6.74
2023-04-12T04:55:26.208Z,6.83
2023-04-12T05:00:29.807Z,6.94
2023-04-12T05:05:34.490Z,6.90
2023-04-12T05:10:40.363Z,6.85
2023-04-12T05:15:44.348Z,6.87
2023-04-12T05:20:50.141Z,6.87
2023-04-12T05:25:53.874Z,7.05
2023-04-12T05:30:57.069Z,7.24
2023-04-12T05:36:07.207Z,7.37
2023-04-12T05:41:10.498Z,7.59
2023-04-12T05:46:17.365Z,7.80
2023-04-12T05:51:34.099Z,8.09
2023-04-12T05:56:43.550Z,8.32
2023-04-12T06:01:46.900Z,8.46
2023-04-12T06:06:51.620Z,8.82
2023-04-12T06:11:54.934Z,9.74
2023-04-12T06:16:58.155Z,10.69
2023-04-12T06:22:02.970Z,12.52
2023-04-12T06:27:06.657Z,14.48
2023-04-12T06:32:09.815Z,15.76
2023-04-12T06:37:14.603Z,17.86
2023-04-12T06:42:19.008Z,19.55
2023-04-12T06:47:23.823Z,21.29
2023-04-12T06:52:28.932Z,22.96
2023-04-12T06:57:32.137Z,23.31
2023-04-12T07:02:35.416Z,23.91
2023-04-12T07:07:40.429Z,23.69
2023-04-12T07:12:44.607Z,24.99
2023-04-12T07:17:48.004Z,25.80
2023-04-12T07:22:52.950Z,25.72
2023-04-12T07:27:57.576Z,24.87
2023-04-12T07:33:18.602Z,23.96
2023-04-12T07:38:24.046Z,26.05
2023-04-12T07:43:27.472Z,26.91
2023-04-12T07:48:31.056Z,26.73
2023-04-12T07:53:35.971Z,26.30
2023-04-12T07:58:39.327Z,25.94
2023-04-12T08:03:43.228Z,25.16
2023-04-12T08:08:48.024Z,25.23
2023-04-12T08:13:52.735Z,24.84
2023-04-12T08:18:56.119Z,24.18
2023-04-12T08:24:01.269Z,23.46
2023-04-12T08:29:04.689Z,22.46
2023-04-12T08:34:26.633Z,21.60
2023-04-12T08:39:49.960Z,21.22
2023-04-12T08:44:53.859Z,21.25
2023-04-12T08:49:58.910Z,20.54
2023-04-12T08:55:05.244Z,19.70
2023-04-12T09:00:09.704Z,19.23
2023-04-12T09:05:14.513Z,19.21
2023-04-12T09:10:33.517Z,19.11
2023-04-12T09:15:36.833Z,18.88
2023-04-12T09:20:40.475Z,18.53
2023-04-12T09:25:48.611Z,18.24
2023-04-12T09:30:55.475Z,18.16
2023-04-12T09:36:03.113Z,18.16
2023-04-12T09:41:22.303Z,18.23
2023-04-12T09:46:29.487Z,17.99
2023-04-12T09:51:36.524Z,17.86
2023-04-12T09:56:42.368Z,18.23
2023-04-12T10:01:47.979Z,17.98
2023-04-12T10:06:51.620Z,18.09
2023-04-12T10:11:57.736Z,18.01
2023-04-12T10:17:02.112Z,17.76
2023-04-12T10:22:06.142Z,17.57
2023-04-12T10:27:11.045Z,17.30
2023-04-12T10:32:23.220Z,16.97
2023-04-12T10:37:59.343Z,16.90
2023-04-12T10:43:29.036Z,16.76
2023-04-12T10:48:35.045Z,16.75
2023-04-12T10:53:38.450Z,16.55
2023-04-12T10:59:00.825Z,16.36
2023-04-12T11:04:14.068Z,16.39
2023-04-12T11:09:22.971Z,16.34
2023-04-12T11:14:30.872Z,16.17
2023-04-12T11:19:34.874Z,16.10
2023-04-12T11:24:39.917Z,16.34
2023-04-12T11:29:45.259Z,16.40
2023-04-12T11:34:49.398Z,16.38
2023-04-12T11:39:54.936Z,16.13
2023-04-12T11:45:04.810Z,16.16
2023-04-12T11:50:13.422Z,16.16
2023-04-12T11:55:19.203Z,16.11
2023-04-12T12:00:27.741Z,16.13
2023-04-12T12:05:37.182Z,16.11
2023-04-12T12:10:52.441Z,15.99
2023-04-12T12:16:10.243Z,15.75
2023-04-12T12:21:14.982Z,15.52
2023-04-12T12:26:22.651Z,15.23
2023-04-12T12:31:28.825Z,14.95
2023-04-12T12:36:33.518Z,14.80
2023-04-12T12:41:37.004Z,14.76
2023-04-12T12:51:49.356Z,14.12
2023-04-12T12:56:52.706Z,13.77
2023-04-12T13:01:57.739Z,13.62
2023-04-12T13:07:04.935Z,13.57
2023-04-12T13:12:08.319Z,13.48
2023-04-12T13:17:13.101Z,13.48
2023-04-12T13:22:16.798Z,13.43
2023-04-12T13:27:22.729Z,13.33
2023-04-12T13:32:27.583Z,13.33
2023-04-12T13:37:30.954Z,13.31
2023-04-12T13:42:34.064Z,13.06
2023-04-12T13:47:39.659Z,13.02
2023-04-12T13:52:44.428Z,13.03
2023-04-12T13:57:47.742Z,12.93
2023-04-12T14:02:52.591Z,12.93
2023-04-12T14:07:56.258Z,12.82
2023-04-12T14:12:59.895Z,12.78
2023-04-12T14:18:04.794Z,12.64
2023-04-12T14:23:08.297Z,12.56
2023-04-12T14:28:16.739Z,12.57
2023-04-12T14:33:21.975Z,12.55
2023-04-12T14:38:25.917Z,12.56
2023-04-12T14:43:29.922Z,12.59
2023-04-12T14:48:34.913Z,12.60
2023-04-12T14:53:38.336Z,12.51
2023-04-12T14:58:41.888Z,12.48
2023-04-12T15:03:47.613Z,12.44
2023-04-12T15:08:55.241Z,12.45
2023-04-12T15:13:59.097Z,12.44
2023-04-12T15:19:10.453Z,12.53
2023-04-12T15:24:17.933Z,12.54
2023-04-12T15:29:22.441Z,12.55
2023-04-12T15:34:28.780Z,12.62
2023-04-12T15:39:32.113Z,12.59
2023-04-12T15:44:35.286Z,12.58
2023-04-12T15:49:40.298Z,12.52
2023-04-12T15:54:44.865Z,12.50
2023-04-12T15:59:50.985Z,12.48
2023-04-12T16:04:56.624Z,12.47
2023-04-12T16:10:00.025Z,12.53
2023-04-12T16:15:03.404Z,12.58
2023-04-12T16:20:10.724Z,12.61
2023-04-12T16:25:14.768Z,12.66
2023-04-12T16:30:19.531Z,12.67
2023-04-12T16:35:25.123Z,12.73
2023-04-12T16:40:29.009Z,12.74
2023-04-12T16:45:32.881Z,12.77
2023-04-12T16:50:38.148Z,12.81
2023-04-12T16:55:45.195Z,12.83
2023-04-12T17:00:49.553Z,12.87
2023-04-12T17:05:54.247Z,12.83
2023-04-12T17:10:57.354Z,12.88
2023-04-12T17:16:00.964Z,12.84
2023-04-12T17:21:06.396Z,12.85
2023-04-12T17:26:09.956Z,12.86
2023-04-12T17:31:13.487Z,12.89
2023-04-12T17:36:18.678Z,12.85
2023-04-12T17:41:22.700Z,12.82
2023-04-12T17:46:26.518Z,12.85
2023-04-12T17:51:32.394Z,12.86
2023-04-12T17:56:38.194Z,12.84
2023-04-12T18:01:42.435Z,12.82
2023-04-12T18:06:48.220Z,12.81
2023-04-12T18:11:51.686Z,12.83
2023-04-12T18:16:55.215Z,12.87
2023-04-12T18:22:00.431Z,12.91
2023-04-12T18:27:05.108Z,12.93
2023-04-12T18:32:08.188Z,12.97
2023-04-12T18:37:17.650Z,12.99
2023-04-12T18:42:21.146Z,12.97
2023-04-12T18:47:24.970Z,12.99
2023-04-12T18:52:29.795Z,13.00
2023-04-12T18:57:33.330Z,12.96
2023-04-12T19:02:44.483Z,12.97
2023-04-12T19:07:49.892Z,12.93
2023-04-12T19:12:53.148Z,12.88
2023-04-12T19:17:57.947Z,12.79
2023-04-12T19:23:07.778Z,12.68
2023-04-12T19:28:11.288Z,12.56
2023-04-12T19:33:18.412Z,12.54
2023-04-12T19:38:23.630Z,12.51
2023-04-12T19:43:26.820Z,12.51
2023-04-12T19:48:31.196Z,12.51
2023-04-12T19:53:36.046Z,12.48
2023-04-12T19:58:41.420Z,12.37
2023-04-12T20:03:45.558Z,12.28
2023-04-12T20:08:52.400Z,12.19
2023-04-12T20:13:56.287Z,12.12
2023-04-12T20:18:59.800Z,12.23
2023-04-12T20:24:08.826Z,12.30
2023-04-12T20:29:11.995Z,12.24
2023-04-12T20:34:15.126Z,12.08
2023-04-12T20:39:19.949Z,12.09
2023-04-12T20:44:23.912Z,12.15
2023-04-12T20:49:27.946Z,12.17
2023-04-12T20:54:34.107Z,12.21
2023-04-12T20:59:38.520Z,12.24
2023-04-12T21:04:42.882Z,12.30
2023-04-12T21:09:47.639Z,12.33
2023-04-12T21:14:51.508Z,12.34
2023-04-12T21:19:54.755Z,12.29
2023-04-12T21:24:59.524Z,12.25
2023-04-12T21:30:03.021Z,12.31
2023-04-12T21:35:07.497Z,12.32
2023-04-12T21:40:14.100Z,12.15
2023-04-12T21:45:17.858Z,12.00
2023-04-12T21:50:21.369Z,11.90
2023-04-12T21:55:28.413Z,11.78
2023-04-12T22:00:33.937Z,11.68
2023-04-12T22:05:39.866Z,11.73
2023-04-12T22:10:45.088Z,11.80
2023-04-12T22:15:48.287Z,11.83
2023-04-12T22:20:54.061Z,11.82
2023-04-12T22:25:58.714Z,11.70
2023-04-12T22:31:02.311Z,11.52
2023-04-12T22:36:08.922Z,11.38
2023-04-12T22:41:16.866Z,11.24
2023-04-12T22:46:21.405Z,11.12
2023-04-12T22:51:27.556Z,11.02
2023-04-12T22:56:32.631Z,10.90
2023-04-12T23:01:36.035Z,10.77
2023-04-12T23:06:40.521Z,10.62
2023-04-12T23:11:45.225Z,10.47
2023-04-12T23:16:51.808Z,10.36
2023-04-12T23:21:56.177Z,10.21
2023-04-12T23:27:01.014Z,10.11
2023-04-12T23:32:04.300Z,10.08
2023-04-12T23:37:08.833Z,10.05
2023-04-12T23:42:13.607Z,10.01
2023-04-12T23:47:17.282Z,9.93
2023-04-12T23:52:20.589Z,9.84
2023-04-12T23:57:25.268Z,9.78
